Aéroport de Guadeloupe - Pôle Caraïbes, Guadeloupe

00:03 AST le 27 avril 2015 (GMT -0400)
Le Raizet | | Change Station
CLOSE
Current Station
Aéroport
Location: Le Raizet Airport,
Altitude: 26 ft
Stations météo à proximité

Alt. 26 ft 16.27 °N, 61.53 °W | Updated 3 minutes ago

Mostly Cloudy
Nuageux
77 ° F
Paraît 77 ° F
N
2
Vent Variable Vent de NE

Aujourd'hui
Haut(e) -- | Bas -- ° F
--% Risque de précip.
Hier
Haut(e) -- | Bas -- ° F
Precip. -- pouce
5:43 AM 6:23 PM
Premier quartier, 61% visible
Pression 29.98 pouce
Visibilité 6.2 Miles terrestres
Nuages Nuageux 1800 ft
Nuageux 4000 ft
Point de rosée 72 ° F
Humidité 83%
Précipitations 0.00 pouce
Profondeur de la couche neigeuse Non disponible.
UV 0 sur 12
Pollen Non disponible.
Qualité de l'air Non disponible.
Flu Activity Non disponible.
METAR TFFR 270400Z AUTO 04002KT 9999 BKN018 BKN040 25/22 Q1015

More Conditions Fewer Conditions

Pression 29.98 pouce
Visibilité 6.2 Miles terrestres
Nuages Nuageux 1800 ft
Nuageux 4000 ft
Point de rosée 72 ° F
Humidité 83%
Précipitations 0.00 pouce
Profondeur de la couche neigeuse Non disponible.
UV 0 sur 12
Pollen Non disponible.
Qualité de l'air Non disponible.
Flu Activity Non disponible.
METAR TFFR 270400Z AUTO 04002KT 9999 BKN018 BKN040 25/22 Q1015

More Conditions Fewer Conditions

10-Day Weather Forecast

Almanac

Astronomie

Apr. 27, 2015 Lever Coucher
Temps réel
Crépuscule civil
Crépuscule nautique
Crépuscule astronomique
Lune
Durée de lumière visible
Longueur du jour
Tomorrow will be .
, % of the Moon is Illuminated

Extrêmes aujourd'hui

Country Highs Country Lows

Community

WunderPhotos

Upload Photos

1,817,259 Photos téléchargées !

WunderBlogs® & News

Nearby

Qualité de l'air

  Qualité de l'air Indice de la qualité de l'air Polluant
Not available.

Épaisseur de neige

Station Depth Altitude

Activité sismique

Ville Distance Mag. Time & Date
Minimum magnitude displayed is 2.5.

Températures des eaux côtières

Lieu Température

Stations

Stations météo à proximité

Emplacement de la station Température Refroidissement éolien Point de rosée Humidité Vent Precip. Alt. Mise à jour Type